createdAt,value
2022-12-12T00:00:40.499Z,100636.47
2022-12-12T00:03:09.843Z,100637.09
2022-12-12T00:05:37.904Z,100649.09
2022-12-12T00:08:06.005Z,100645.22
2022-12-12T00:10:34.850Z,100642.38
2022-12-12T00:13:02.649Z,100647.25
2022-12-12T00:15:30.495Z,100634.19
2022-12-12T00:17:58.237Z,100649.31
2022-12-12T00:20:27.378Z,100649.09
2022-12-12T00:22:55.285Z,100640.31
2022-12-12T00:25:23.073Z,100642.97
2022-12-12T00:27:50.791Z,100660.97
2022-12-12T00:30:18.602Z,100680.22
2022-12-12T00:32:46.273Z,100680.06
2022-12-12T00:35:14.223Z,100663.69
2022-12-12T00:37:43.583Z,100673.38
2022-12-12T00:40:13.553Z,100683.25
2022-12-12T00:42:41.284Z,100684.34
2022-12-12T00:45:10.178Z,100699.34
2022-12-12T00:47:38.256Z,100700.88
2022-12-12T00:50:06.992Z,100688.88
2022-12-12T00:52:34.745Z,100688.56
2022-12-12T00:55:04.036Z,100690.31
2022-12-12T00:57:31.745Z,100692.72
2022-12-12T00:59:59.642Z,100684.03
2022-12-12T01:02:28.489Z,100694.53
2022-12-12T01:04:56.357Z,100697.00
2022-12-12T01:07:24.546Z,100690.41
2022-12-12T01:09:52.388Z,100683.06
2022-12-12T01:12:21.480Z,100699.34
2022-12-12T01:14:49.899Z,100680.94
2022-12-12T01:17:17.815Z,100691.47
2022-12-12T01:19:45.549Z,100689.16
2022-12-12T01:22:13.331Z,100682.75
2022-12-12T01:24:41.041Z,100697.91
2022-12-12T01:27:08.851Z,100702.88
2022-12-12T01:29:38.024Z,100699.47
2022-12-12T01:32:06.414Z,100700.59
2022-12-12T01:34:34.193Z,100724.22
2022-12-12T01:37:01.910Z,100719.72
2022-12-12T01:39:29.601Z,100739.91
2022-12-12T01:41:57.400Z,100748.38
2022-12-12T01:44:42.026Z,100739.72
2022-12-12T01:47:09.965Z,100719.69
2022-12-12T01:49:37.906Z,100696.19
2022-12-12T01:52:11.048Z,100687.22
2022-12-12T01:54:43.719Z,100682.47
2022-12-12T01:57:15.015Z,100664.06
2022-12-12T01:59:46.610Z,100658.63
2022-12-12T02:02:14.585Z,100653.50
2022-12-12T02:04:43.022Z,100643.94
2022-12-12T02:07:11.008Z,100649.75
2022-12-12T02:09:39.684Z,100643.47
2022-12-12T02:12:08.236Z,100644.06
2022-12-12T02:14:41.668Z,100653.50
2022-12-12T02:17:45.007Z,100654.56
2022-12-12T02:20:44.546Z,100657.28
2022-12-12T02:23:40.732Z,100647.47
2022-12-12T02:27:05.287Z,100660.56
2022-12-12T02:30:08.101Z,100687.28
2022-12-12T02:32:51.190Z,100671.09
2022-12-12T02:35:26.613Z,100663.22
2022-12-12T02:38:05.008Z,100677.06
2022-12-12T02:40:37.007Z,100668.56
2022-12-12T02:43:12.492Z,100675.97
2022-12-12T02:45:44.833Z,100694.13
2022-12-12T02:48:20.130Z,100705.44
2022-12-12T02:50:50.349Z,100720.06
2022-12-12T02:53:19.970Z,100724.78
2022-12-12T02:55:48.029Z,100751.19
2022-12-12T02:58:16.487Z,100748.59
2022-12-12T03:00:53.012Z,100770.34
2022-12-12T03:03:53.740Z,100764.94
2022-12-12T03:06:54.576Z,100763.19
2022-12-12T03:09:34.518Z,100747.97
2022-12-12T03:12:08.247Z,100750.44
2022-12-12T03:14:49.118Z,100737.56
2022-12-12T03:17:26.421Z,100750.81
2022-12-12T03:20:04.133Z,100749.09
2022-12-12T03:22:38.383Z,100756.94
2022-12-12T03:25:11.038Z,100738.13
2022-12-12T03:27:45.988Z,100732.69
2022-12-12T03:30:17.746Z,100742.63
2022-12-12T03:32:51.936Z,100730.44
2022-12-12T03:35:26.012Z,100723.75
2022-12-12T03:37:58.597Z,100728.41
2022-12-12T03:40:30.835Z,100715.03
2022-12-12T03:43:03.289Z,100724.25
2022-12-12T03:45:37.965Z,100709.69
2022-12-12T03:48:13.463Z,100711.53
2022-12-12T03:50:50.120Z,100695.34
2022-12-12T03:53:23.790Z,100702.16
2022-12-12T03:55:57.779Z,100705.41
2022-12-12T03:58:30.387Z,100707.09
2022-12-12T04:01:00.479Z,100712.22
2022-12-12T04:03:36.400Z,100711.91
2022-12-12T04:06:29.998Z,100706.31
2022-12-12T04:09:18.076Z,100712.72
2022-12-12T04:12:23.423Z,100706.91
2022-12-12T04:15:05.072Z,100711.53
2022-12-12T04:17:39.496Z,100703.72
2022-12-12T04:20:35.052Z,100707.66
2022-12-12T04:23:17.862Z,100709.84
2022-12-12T04:26:16.494Z,100690.56
2022-12-12T04:28:52.347Z,100675.41
2022-12-12T04:31:24.400Z,100670.56
2022-12-12T04:33:57.465Z,100670.22
2022-12-12T04:36:26.178Z,100687.25
2022-12-12T04:38:56.947Z,100696.16
2022-12-12T04:41:28.141Z,100695.13
2022-12-12T04:43:57.496Z,100690.59
2022-12-12T04:46:29.582Z,100714.13
2022-12-12T04:49:01.458Z,100723.72
2022-12-12T04:51:32.868Z,100725.47
2022-12-12T04:54:06.921Z,100737.56
2022-12-12T04:56:37.886Z,100753.03
2022-12-12T04:59:06.938Z,100751.41
2022-12-12T05:01:41.240Z,100762.16
2022-12-12T05:04:15.122Z,100760.34
2022-12-12T05:06:46.991Z,100775.81
2022-12-12T05:09:18.648Z,100775.09
2022-12-12T05:11:46.490Z,100769.28
2022-12-12T05:14:17.126Z,100759.25
2022-12-12T05:16:48.180Z,100764.38
2022-12-12T05:19:16.256Z,100755.69
2022-12-12T05:21:43.994Z,100747.97
2022-12-12T05:24:11.894Z,100741.56
2022-12-12T05:26:41.032Z,100749.91
2022-12-12T05:29:08.922Z,100753.34
2022-12-12T05:31:37.052Z,100744.84
2022-12-12T05:34:05.102Z,100756.50
2022-12-12T05:36:32.935Z,100747.53
2022-12-12T05:39:00.675Z,100741.41
2022-12-12T05:41:28.429Z,100742.56
2022-12-12T05:43:57.628Z,100725.47
2022-12-12T05:46:25.609Z,100722.66
2022-12-12T05:48:53.344Z,100721.41
2022-12-12T05:51:22.283Z,100714.38
2022-12-12T05:53:50.081Z,100725.25
2022-12-12T05:56:17.869Z,100745.97
2022-12-12T05:58:45.624Z,100736.03
2022-12-12T06:01:14.705Z,100735.19
2022-12-12T06:03:42.433Z,100737.91
2022-12-12T06:06:10.212Z,100738.50
2022-12-12T06:08:38.092Z,100745.19
2022-12-12T06:11:07.871Z,100749.81
2022-12-12T06:13:35.822Z,100759.66
2022-12-12T06:16:07.410Z,100765.66
2022-12-12T06:18:37.174Z,100756.00
2022-12-12T06:21:06.794Z,100765.72
2022-12-12T06:23:36.774Z,100780.28
2022-12-12T06:26:05.066Z,100802.28
2022-12-12T06:28:33.035Z,100808.13
2022-12-12T06:31:01.047Z,100803.19
2022-12-12T06:33:31.725Z,100785.91
2022-12-12T06:36:01.750Z,100758.53
2022-12-12T06:38:30.299Z,100748.28
2022-12-12T06:40:58.053Z,100752.97
2022-12-12T06:43:26.061Z,100754.81
2022-12-12T06:45:53.855Z,100759.63
2022-12-12T06:48:21.704Z,100750.03
2022-12-12T06:50:49.433Z,100748.22
2022-12-12T06:53:18.503Z,100746.78
2022-12-12T06:55:46.275Z,100743.09
2022-12-12T06:58:13.986Z,100734.69
2022-12-12T07:00:41.699Z,100740.00
2022-12-12T07:03:13.269Z,100743.69
2022-12-12T07:05:41.179Z,100735.81
2022-12-12T07:08:08.911Z,100728.84
2022-12-12T07:10:38.143Z,100723.72
2022-12-12T07:13:05.877Z,100720.34
2022-12-12T07:15:33.663Z,100718.78
2022-12-12T07:18:01.447Z,100713.63
2022-12-12T07:20:29.266Z,100714.63
2022-12-12T07:22:57.018Z,100718.22
2022-12-12T07:25:24.761Z,100723.34
2022-12-12T07:27:54.401Z,100730.47
2022-12-12T07:30:22.148Z,100740.63
2022-12-12T07:32:49.888Z,100736.63
2022-12-12T07:35:17.678Z,100734.94
2022-12-12T07:37:45.441Z,100739.63
2022-12-12T07:40:13.450Z,100741.69
2022-12-12T07:42:41.211Z,100747.03
2022-12-12T07:45:16.516Z,100748.63
2022-12-12T07:47:45.959Z,100766.00
2022-12-12T07:50:13.798Z,100762.22
2022-12-12T07:52:41.720Z,100756.09
2022-12-12T07:55:11.258Z,100752.09
2022-12-12T07:57:39.788Z,100751.00
2022-12-12T08:00:13.141Z,100745.31
2022-12-12T08:02:41.505Z,100753.47
2022-12-12T08:05:10.152Z,100759.75
2022-12-12T08:07:37.935Z,100760.78
2022-12-12T08:10:06.777Z,100773.63
2022-12-12T08:12:34.522Z,100768.09
2022-12-12T08:15:02.224Z,100758.28
2022-12-12T08:17:31.313Z,100750.94
2022-12-12T08:19:59.059Z,100762.59
2022-12-12T08:22:26.772Z,100757.69
2022-12-12T08:24:54.517Z,100757.50
2022-12-12T08:27:22.264Z,100760.94
2022-12-12T08:29:52.796Z,100759.88
2022-12-12T08:32:20.711Z,100765.59
2022-12-12T08:34:49.830Z,100772.47
2022-12-12T08:37:17.650Z,100766.34
2022-12-12T08:39:45.400Z,100771.56
2022-12-12T08:42:13.368Z,100769.28
2022-12-12T08:44:41.216Z,100767.91
2022-12-12T08:47:09.058Z,100774.63
2022-12-12T08:49:36.797Z,100778.16
2022-12-12T08:52:09.878Z,100779.56
2022-12-12T08:54:37.782Z,100786.72
2022-12-12T08:57:05.599Z,100764.78
2022-12-12T08:59:33.299Z,100754.59
2022-12-12T09:02:01.119Z,100750.03
2022-12-12T09:04:28.892Z,100752.91
2022-12-12T09:06:56.619Z,100760.88
2022-12-12T09:09:25.709Z,100765.78
2022-12-12T09:11:53.479Z,100759.16
2022-12-12T09:14:21.261Z,100751.50
2022-12-12T09:16:48.998Z,100752.47
2022-12-12T09:19:17.746Z,100754.69
2022-12-12T09:21:46.363Z,100752.09
2022-12-12T09:24:14.078Z,100757.16
2022-12-12T09:26:43.230Z,100759.81
2022-12-12T09:29:12.860Z,100753.09
2022-12-12T09:31:40.587Z,100755.53
2022-12-12T09:34:08.428Z,100750.50
2022-12-12T09:36:36.170Z,100756.69
2022-12-12T09:39:04.756Z,100756.19
2022-12-12T09:41:32.684Z,100745.97
2022-12-12T09:44:06.792Z,100753.50
2022-12-12T09:46:38.629Z,100752.69
2022-12-12T09:49:14.329Z,100752.13
2022-12-12T09:51:45.011Z,100760.09
2022-12-12T09:54:16.425Z,100758.31
2022-12-12T09:56:56.599Z,100758.88
2022-12-12T09:59:33.831Z,100770.56
2022-12-12T10:02:13.297Z,100765.66
2022-12-12T10:04:50.939Z,100758.69
2022-12-12T10:07:23.536Z,100761.50
2022-12-12T10:10:02.928Z,100749.13
2022-12-12T10:12:33.058Z,100742.25
2022-12-12T10:15:04.881Z,100750.94
2022-12-12T10:17:35.601Z,100744.94
2022-12-12T10:20:09.223Z,100742.16
2022-12-12T10:22:42.852Z,100748.41
2022-12-12T10:25:22.203Z,100746.56
2022-12-12T10:27:52.814Z,100742.75
2022-12-12T10:30:22.532Z,100734.63
2022-12-12T10:33:13.862Z,100739.31
2022-12-12T10:35:53.004Z,100736.94
2022-12-12T10:38:42.569Z,100728.69
2022-12-12T10:41:16.824Z,100732.69
2022-12-12T10:43:58.200Z,100729.31
2022-12-12T10:46:32.666Z,100722.25
2022-12-12T10:49:00.661Z,100729.28
2022-12-12T10:51:30.012Z,100721.50
2022-12-12T10:53:57.878Z,100733.03
2022-12-12T10:56:29.026Z,100726.22
2022-12-12T10:58:58.671Z,100726.44
2022-12-12T11:04:20.607Z,100718.81
2022-12-12T11:06:51.788Z,100723.09
2022-12-12T11:09:22.803Z,100715.75
2022-12-12T11:12:00.296Z,100723.88
2022-12-12T11:14:33.026Z,100722.84
2022-12-12T11:17:02.297Z,100724.88
2022-12-12T11:19:38.309Z,100712.81
2022-12-12T11:22:06.404Z,100719.81
2022-12-12T11:24:35.901Z,100723.47
2022-12-12T11:27:07.191Z,100715.38
2022-12-12T11:29:42.628Z,100714.56
2022-12-12T11:32:15.702Z,100697.75
2022-12-12T11:34:47.522Z,100716.88
2022-12-12T11:37:17.799Z,100708.91
2022-12-12T11:39:47.657Z,100709.19
2022-12-12T11:42:21.609Z,100726.09
2022-12-12T11:44:59.234Z,100712.09
2022-12-12T11:47:30.540Z,100705.41
2022-12-12T11:50:02.043Z,100713.50
2022-12-12T11:52:34.232Z,100713.03
2022-12-12T11:55:02.169Z,100737.44
2022-12-12T11:57:51.140Z,100720.63
2022-12-12T12:00:21.709Z,100814.69
2022-12-12T12:03:25.373Z,101184.00
2022-12-12T12:06:14.515Z,101094.94
2022-12-12T12:08:57.594Z,101107.53
2022-12-12T12:11:34.061Z,101107.38
2022-12-12T12:14:20.531Z,101109.63
2022-12-12T12:16:57.796Z,101119.44
2022-12-12T12:19:38.171Z,101136.97
2022-12-12T12:22:16.161Z,101133.84
2022-12-12T12:25:01.322Z,101132.78
2022-12-12T12:27:38.557Z,101123.25
2022-12-12T12:30:21.702Z,101122.41
2022-12-12T12:33:03.902Z,101111.56
2022-12-12T12:35:38.099Z,101124.56
2022-12-12T12:38:20.664Z,101131.91
2022-12-12T12:41:07.558Z,101136.50
2022-12-12T12:43:55.903Z,101111.78
2022-12-12T12:46:33.346Z,101109.78
2022-12-12T12:49:06.112Z,101110.41
2022-12-12T12:51:41.185Z,101102.78
2022-12-12T12:54:17.648Z,101074.31
2022-12-12T12:56:50.481Z,101058.19
2022-12-12T12:59:22.890Z,101033.59
2022-12-12T13:01:53.115Z,101034.09
2022-12-12T13:04:23.975Z,101023.44
2022-12-12T13:06:58.376Z,101009.44
2022-12-12T13:09:35.159Z,101000.63
2022-12-12T13:12:10.297Z,100987.97
2022-12-12T13:14:47.219Z,100984.56
2022-12-12T13:17:19.466Z,100973.03
2022-12-12T13:19:49.952Z,100978.63
2022-12-12T13:22:28.229Z,100977.44
2022-12-12T13:25:06.422Z,100989.03
2022-12-12T13:27:41.119Z,100956.09
2022-12-12T13:30:20.839Z,100954.59
2022-12-12T13:33:29.074Z,100949.56
2022-12-12T13:36:05.583Z,100949.69
2022-12-12T13:38:35.798Z,100946.78
2022-12-12T13:41:06.332Z,100955.09
2022-12-12T13:43:45.059Z,100954.03
2022-12-12T13:46:35.974Z,100972.97
2022-12-12T13:49:24.632Z,100979.59
2022-12-12T13:51:52.418Z,100973.97
2022-12-12T13:54:52.358Z,100970.19
2022-12-12T13:57:33.655Z,100990.13
2022-12-12T14:00:29.175Z,100977.41
2022-12-12T14:03:03.459Z,100980.88
2022-12-12T14:05:34.854Z,100973.06
2022-12-12T14:08:19.903Z,100995.19
2022-12-12T14:10:56.997Z,101010.28
2022-12-12T14:13:40.032Z,101016.94
2022-12-12T14:16:18.961Z,101024.34
2022-12-12T14:19:01.880Z,101043.44
2022-12-12T14:21:42.325Z,101039.00
2022-12-12T14:24:59.326Z,101053.13
2022-12-12T14:28:04.062Z,101055.38
2022-12-12T14:30:44.545Z,101046.78
2022-12-12T14:33:43.421Z,101038.56
2022-12-12T14:36:30.146Z,101047.47
2022-12-12T14:39:11.426Z,101057.09
2022-12-12T14:41:40.494Z,101051.34
2022-12-12T14:44:36.901Z,101071.97
2022-12-12T14:47:09.040Z,101074.91
2022-12-12T14:49:37.291Z,101070.38
2022-12-12T14:52:05.204Z,101077.75
2022-12-12T14:54:33.123Z,101053.72
2022-12-12T14:57:01.405Z,101051.56
2022-12-12T14:59:33.838Z,101048.56
2022-12-12T15:02:07.115Z,101050.06
2022-12-12T15:04:36.978Z,101043.44
2022-12-12T15:07:06.006Z,101060.47
2022-12-12T15:09:35.794Z,101043.28
2022-12-12T15:12:15.340Z,101055.88
2022-12-12T15:14:55.486Z,101051.56
2022-12-12T15:17:28.493Z,101049.50
2022-12-12T15:19:59.571Z,101063.78
2022-12-12T15:22:29.692Z,101070.78
2022-12-12T15:25:00.038Z,101062.03
2022-12-12T15:27:32.113Z,101053.19
2022-12-12T15:30:03.292Z,101070.13
2022-12-12T15:32:31.260Z,101070.59
2022-12-12T15:35:05.751Z,101065.38
2022-12-12T15:37:34.897Z,101043.38
2022-12-12T15:40:20.069Z,101039.72
2022-12-12T15:42:52.432Z,101053.81
2022-12-12T15:45:25.715Z,101063.03
2022-12-12T15:47:56.492Z,101048.56
2022-12-12T15:50:26.643Z,101039.06
2022-12-12T15:53:03.893Z,101039.47
2022-12-12T15:55:31.840Z,101044.84
2022-12-12T15:57:59.701Z,101023.91
2022-12-12T16:00:35.928Z,101035.72
2022-12-12T16:03:07.443Z,101045.22
2022-12-12T16:05:37.584Z,101037.19
2022-12-12T16:08:31.699Z,101029.59
2022-12-12T16:11:02.430Z,101048.81
2022-12-12T16:13:37.949Z,101028.59
2022-12-12T16:16:39.079Z,101041.84
2022-12-12T16:19:21.220Z,101044.38
2022-12-12T16:21:48.965Z,101065.53
2022-12-12T16:24:23.672Z,101039.84
2022-12-12T16:26:51.649Z,101055.50
2022-12-12T16:29:19.674Z,101048.31
2022-12-12T16:31:49.934Z,101041.56
2022-12-12T16:34:18.025Z,101051.38
2022-12-12T16:36:46.608Z,101044.44
2022-12-12T16:39:17.163Z,101041.25
2022-12-12T16:41:44.975Z,101047.47
2022-12-12T16:44:12.709Z,101043.25
2022-12-12T16:46:40.420Z,101047.00
2022-12-12T16:49:15.307Z,101034.16
2022-12-12T16:51:43.459Z,101032.59
2022-12-12T16:54:16.902Z,101022.97
2022-12-12T16:56:50.454Z,101031.72
2022-12-12T16:59:18.221Z,101048.41
2022-12-12T17:01:46.188Z,101045.72
2022-12-12T17:04:22.217Z,101038.13
2022-12-12T17:06:50.867Z,101023.97
2022-12-12T17:09:18.661Z,101019.53
2022-12-12T17:11:46.480Z,101028.72
2022-12-12T17:14:19.010Z,101026.28
2022-12-12T17:16:46.801Z,101042.16
2022-12-12T17:19:14.540Z,101040.00
2022-12-12T17:21:43.667Z,101041.19
2022-12-12T17:24:11.502Z,101062.00
2022-12-12T17:26:40.141Z,101081.34
2022-12-12T17:29:08.717Z,101096.84
2022-12-12T17:31:36.494Z,101076.53
2022-12-12T17:34:04.993Z,101088.81
2022-12-12T17:36:33.087Z,101090.84
2022-12-12T17:39:02.188Z,101085.75
2022-12-12T17:41:30.027Z,101076.47
2022-12-12T17:43:58.232Z,101073.31
2022-12-12T17:46:28.556Z,101070.44
2022-12-12T17:48:59.030Z,101089.53
2022-12-12T17:51:26.867Z,101090.38
2022-12-12T17:53:55.681Z,101087.91
2022-12-12T17:56:25.980Z,101084.00
2022-12-12T17:58:54.684Z,101068.28
2022-12-12T18:01:28.793Z,101053.44
2022-12-12T18:03:57.541Z,101062.09
2022-12-12T18:06:26.906Z,101082.44
2022-12-12T18:08:55.572Z,101073.16
2022-12-12T18:11:27.311Z,101076.75
2022-12-12T18:13:57.572Z,101067.78
2022-12-12T18:16:26.150Z,101063.28
2022-12-12T18:18:54.947Z,101055.50
2022-12-12T18:24:12.755Z,101076.69
2022-12-12T18:26:41.867Z,101074.31
2022-12-12T18:29:12.124Z,101094.19
2022-12-12T18:31:40.446Z,101098.91
2022-12-12T18:34:08.425Z,101103.00
2022-12-12T18:36:36.661Z,101109.22
2022-12-12T18:39:05.704Z,101114.38
2022-12-12T18:41:36.362Z,101105.94
2022-12-12T18:44:07.939Z,101114.28
2022-12-12T18:46:42.276Z,101124.75
2022-12-12T18:49:13.660Z,101103.94
2022-12-12T18:51:41.437Z,101114.88
2022-12-12T18:54:14.322Z,101109.78
2022-12-12T18:56:44.967Z,101114.47
2022-12-12T18:59:14.898Z,101123.09
2022-12-12T19:01:42.880Z,101116.44
2022-12-12T19:04:14.129Z,101135.88
2022-12-12T19:06:44.240Z,101129.34
2022-12-12T19:09:15.322Z,101122.72
2022-12-12T19:11:43.657Z,101112.50
2022-12-12T19:14:13.089Z,101090.94
2022-12-12T19:16:42.645Z,101078.69
2022-12-12T19:19:10.483Z,101067.34
2022-12-12T19:21:38.756Z,101039.44
2022-12-12T19:24:09.236Z,101043.97
2022-12-12T19:26:38.735Z,101014.59
2022-12-12T19:29:08.782Z,100999.44
2022-12-12T19:31:37.597Z,100990.38
2022-12-12T19:34:09.063Z,100991.84
2022-12-12T19:36:37.306Z,101017.66
2022-12-12T19:39:07.247Z,101025.22
2022-12-12T19:41:36.334Z,101003.09
2022-12-12T19:44:08.611Z,100988.13
2022-12-12T19:46:36.717Z,101003.31
2022-12-12T19:49:08.620Z,100990.72
2022-12-12T19:51:39.285Z,100985.03
2022-12-12T19:54:10.040Z,100999.53
2022-12-12T19:56:40.616Z,101003.47
2022-12-12T19:59:09.576Z,100973.13
2022-12-12T20:01:38.877Z,100974.25
2022-12-12T20:04:09.803Z,100958.53
2022-12-12T20:06:44.887Z,100965.97
2022-12-12T20:09:14.890Z,100972.28
2022-12-12T20:11:45.136Z,100958.81
2022-12-12T20:14:14.023Z,100962.78
2022-12-12T20:16:41.883Z,100964.19
2022-12-12T20:19:12.072Z,100979.03
2022-12-12T20:24:32.600Z,100982.31
2022-12-12T20:27:03.014Z,100994.69
2022-12-12T20:29:31.357Z,101005.56
2022-12-12T20:32:01.220Z,101017.81
2022-12-12T20:34:30.914Z,101036.69
2022-12-12T20:36:58.897Z,101038.06
2022-12-12T20:39:26.856Z,101049.69
2022-12-12T20:41:56.577Z,101057.91
2022-12-12T20:44:25.677Z,101079.41
2022-12-12T20:46:53.923Z,101069.56
2022-12-12T20:49:24.585Z,101053.94
2022-12-12T20:51:55.798Z,101061.47
2022-12-12T20:54:24.794Z,101072.06
2022-12-12T20:56:53.285Z,101062.91
2022-12-12T20:59:21.092Z,101088.81
2022-12-12T21:01:48.940Z,101085.28
2022-12-12T21:04:17.049Z,101086.97
2022-12-12T21:06:49.427Z,101092.28
2022-12-12T21:09:24.282Z,101078.75
2022-12-12T21:11:53.086Z,101060.47
2022-12-12T21:14:20.858Z,101061.63
2022-12-12T21:16:48.712Z,101076.09
2022-12-12T21:19:18.933Z,101063.94
2022-12-12T21:21:47.064Z,101072.69
2022-12-12T21:24:16.741Z,101084.16
2022-12-12T21:26:46.621Z,101085.88
2022-12-12T21:29:15.369Z,101090.81
2022-12-12T21:31:50.451Z,101096.84
2022-12-12T21:34:19.299Z,101079.75
2022-12-12T21:36:47.065Z,101077.44
2022-12-12T21:39:14.923Z,101088.94
2022-12-12T21:41:43.920Z,101076.06
2022-12-12T21:44:13.276Z,101077.00
2022-12-12T21:46:43.248Z,101063.63
2022-12-12T21:49:30.904Z,101082.97
2022-12-12T21:52:00.931Z,101071.59
2022-12-12T21:54:30.089Z,101078.59
2022-12-12T21:56:59.064Z,101105.03
2022-12-12T21:59:28.907Z,101121.19
2022-12-12T22:01:58.056Z,101119.72
2022-12-12T22:04:26.453Z,101120.19
2022-12-12T22:06:54.202Z,101127.38
2022-12-12T22:09:23.425Z,101117.22
2022-12-12T22:11:52.129Z,101136.59
2022-12-12T22:14:21.527Z,101133.69
2022-12-12T22:16:51.108Z,101134.31
2022-12-12T22:19:19.301Z,101141.28
2022-12-12T22:21:49.170Z,101140.53
2022-12-12T22:24:17.683Z,101139.19
2022-12-12T22:26:46.771Z,101127.94
2022-12-12T22:29:16.827Z,101118.38
2022-12-12T22:31:45.872Z,101119.16
2022-12-12T22:34:17.699Z,101123.16
2022-12-12T22:36:46.387Z,101117.16
2022-12-12T22:39:17.709Z,101103.84
2022-12-12T22:41:45.808Z,101112.00
2022-12-12T22:44:16.682Z,101098.28
2022-12-12T22:46:45.362Z,101104.41
2022-12-12T22:49:16.205Z,101098.47
2022-12-12T22:51:44.515Z,101097.13
2022-12-12T22:54:12.994Z,101100.28
2022-12-12T22:56:41.770Z,101097.75
2022-12-12T22:59:11.367Z,101095.88
2022-12-12T23:01:39.115Z,101089.50
2022-12-12T23:04:07.131Z,101102.16
2022-12-12T23:06:37.278Z,101105.53
2022-12-12T23:09:08.600Z,101104.09
2022-12-12T23:11:36.954Z,101110.56
2022-12-12T23:14:07.332Z,101111.44
2022-12-12T23:16:36.080Z,101104.78
2022-12-12T23:19:05.544Z,101096.59
2022-12-12T23:21:33.758Z,101088.66
2022-12-12T23:24:03.715Z,101082.50
2022-12-12T23:26:32.584Z,101070.22
2022-12-12T23:29:01.129Z,101061.16
2022-12-12T23:31:32.144Z,101053.34
2022-12-12T23:34:01.941Z,101043.19
2022-12-12T23:36:30.374Z,101036.72
2022-12-12T23:38:59.797Z,101043.03
2022-12-12T23:41:29.142Z,101026.19
2022-12-12T23:43:57.102Z,101037.91
2022-12-12T23:46:29.363Z,101046.28
2022-12-12T23:48:58.329Z,101034.84
2022-12-12T23:51:27.737Z,101018.78
2022-12-12T23:53:56.828Z,101012.16
2022-12-12T23:56:24.574Z,101021.38
2022-12-12T23:58:54.374Z,101007.94
